Time;durP1;ratioP1;P1;durP2;ratioP2;P2;SDS_P1;SDS_P2;PMS_P1;PMS_P2;Temp;Humidity;BMP_temperature;BMP_pressure;BME280_temperature;BME280_humidity;BME280_pressure;Samples;Min_cycle;Max_cycle;Signal;HPM_P1;HPM_P2
2021/10/01 00:02:59;;;;;;;2.97;2.77;;;12.20;99.90;;;;;;10456011;28;20221;-82
2021/10/01 00:08:04;;;;;;;4.27;2.80;;;12.30;99.90;;;;;;10447486;28;20236;-83
2021/10/01 00:13:06;;;;;;;3.10;2.90;;;12.20;99.90;;;;;;10460041;28;20272;-83
2021/10/01 00:18:09;;;;;;;3.17;2.90;;;12.20;99.90;;;;;;10460827;28;20704;-83
2021/10/01 00:23:12;;;;;;;6.53;2.83;;;12.20;99.90;;;;;;10459055;28;20739;-84
2021/10/01 00:28:14;;;;;;;3.13;2.70;;;12.20;99.90;;;;;;10461494;28;20197;-84
2021/10/01 00:33:17;;;;;;;2.70;2.50;;;12.20;99.90;;;;;;10421100;28;20326;-83
2021/10/01 00:38:19;;;;;;;3.30;3.00;;;12.10;99.90;;;;;;10398567;28;20267;-82
2021/10/01 00:43:22;;;;;;;2.60;2.40;;;12.10;99.90;;;;;;10415285;28;20581;-82
2021/10/01 00:48:25;;;;;;;2.57;2.37;;;12.10;99.90;;;;;;10398953;28;20190;-83
2021/10/01 00:53:27;;;;;;;3.13;2.93;;;12.00;99.90;;;;;;10415152;28;20702;-84
2021/10/01 00:58:30;;;;;;;3.90;2.60;;;12.00;99.90;;;;;;10420782;28;20305;-83
2021/10/01 01:03:34;;;;;;;2.43;2.33;;;12.00;99.90;;;;;;10443081;28;20320;-84
2021/10/01 01:08:43;;;;;;;2.40;2.30;;;12.00;99.90;;;;;;10450854;28;20194;-83
2021/10/01 01:13:53;;;;;;;3.07;2.43;;;12.00;99.90;;;;;;10450320;28;20221;-84
2021/10/01 01:18:59;;;;;;;2.57;2.40;;;12.00;99.90;;;;;;10452576;28;20233;-83
2021/10/01 01:24:15;;;;;;;2.93;2.40;;;12.00;99.90;;;;;;10476263;28;20217;-83
2021/10/01 01:29:45;;;;;;;2.30;2.20;;;12.00;99.90;;;;;;10464852;28;20202;-84
2021/10/01 01:34:56;;;;;;;2.50;2.30;;;12.00;99.90;;;;;;10428849;28;20288;-83
2021/10/01 01:40:04;;;;;;;2.87;2.60;;;12.00;99.90;;;;;;10404999;28;20204;-83
2021/10/01 01:45:08;;;;;;;2.70;2.50;;;11.90;99.90;;;;;;10420016;28;20218;-83
2021/10/01 01:50:12;;;;;;;2.57;2.40;;;11.90;99.90;;;;;;10403855;28;20712;-82
2021/10/01 01:55:15;;;;;;;2.67;2.47;;;12.00;99.90;;;;;;10404403;28;20220;-82
2021/10/01 02:00:18;;;;;;;2.60;2.40;;;11.90;99.90;;;;;;10421456;28;20252;-82
2021/10/01 02:05:25;;;;;;;2.43;2.20;;;11.80;99.90;;;;;;10462777;28;20213;-84
2021/10/01 02:10:29;;;;;;;2.63;2.43;;;11.80;99.90;;;;;;10466748;28;20200;-83
2021/10/01 02:15:33;;;;;;;3.13;2.73;;;11.80;99.90;;;;;;10457053;28;20224;-84
2021/10/01 02:20:38;;;;;;;2.60;2.40;;;11.80;99.90;;;;;;10465896;28;20203;-84
2021/10/01 02:31:09;;;;;;;2.80;2.60;;;11.70;99.90;;;;;;10466192;28;20272;-84
2021/10/01 02:36:13;;;;;;;2.50;2.30;;;11.70;99.90;;;;;;10449215;28;20229;-84
2021/10/01 02:41:17;;;;;;;2.60;2.50;;;11.70;99.90;;;;;;10467048;28;20193;-84
2021/10/01 02:46:20;;;;;;;2.20;2.10;;;11.70;99.90;;;;;;10465794;28;20209;-84
2021/10/01 02:51:29;;;;;;;2.33;2.23;;;11.70;99.90;;;;;;10449096;28;20291;-84
2021/10/01 02:56:38;;;;;;;2.83;2.60;;;11.70;99.90;;;;;;10448084;28;20630;-84
2021/10/01 03:01:43;;;;;;;2.60;2.40;;;11.70;99.90;;;;;;10465348;28;20202;-84
2021/10/01 03:06:51;;;;;;;2.60;2.40;;;11.60;99.90;;;;;;10447830;28;20193;-83
2021/10/01 03:11:54;;;;;;;2.90;2.80;;;11.60;99.90;;;;;;10446260;28;20224;-82
2021/10/01 03:16:58;;;;;;;6.43;2.80;;;11.60;99.90;;;;;;10458856;28;20559;-83
2021/10/01 03:22:05;;;;;;;2.83;1.90;;;11.50;99.90;;;;;;10446324;28;20315;-82
2021/10/01 03:27:07;;;;;;;2.90;2.70;;;11.50;99.90;;;;;;10464446;28;20649;-84
2021/10/01 03:32:12;;;;;;;3.17;2.73;;;11.50;99.90;;;;;;10433617;28;20230;-82
2021/10/01 03:37:16;;;;;;;2.60;2.40;;;11.50;99.90;;;;;;10405087;28;20309;-82
2021/10/01 03:42:18;;;;;;;6.13;2.67;;;11.50;99.90;;;;;;10415854;28;20235;-84
2021/10/01 03:47:22;;;;;;;5.00;2.60;;;11.50;99.90;;;;;;10400537;28;20226;-83
2021/10/01 03:52:25;;;;;;;2.80;2.60;;;11.50;99.90;;;;;;10418239;28;20249;-83
2021/10/01 03:57:27;;;;;;;2.63;2.33;;;11.50;99.90;;;;;;10400241;28;20237;-82
2021/10/01 04:02:30;;;;;;;2.97;2.63;;;11.50;99.90;;;;;;10440290;28;20705;-82
2021/10/01 04:07:34;;;;;;;2.77;2.57;;;11.50;99.90;;;;;;10441722;28;20201;-82
2021/10/01 04:12:36;;;;;;;2.40;2.20;;;11.50;99.90;;;;;;10439202;28;20213;-83
2021/10/01 04:17:46;;;;;;;5.03;2.70;;;11.50;99.90;;;;;;10435317;28;20221;-84
2021/10/01 04:22:50;;;;;;;3.27;2.20;;;11.50;99.90;;;;;;10457078;28;20209;-83
2021/10/01 04:28:11;;;;;;;4.50;2.37;;;11.50;99.90;;;;;;10456671;28;20649;-82
2021/10/01 04:33:20;;;;;;;3.13;2.83;;;11.50;99.90;;;;;;10461105;28;20304;-82
2021/10/01 04:38:24;;;;;;;3.13;2.93;;;11.40;99.90;;;;;;10466460;28;20209;-82
2021/10/01 04:43:29;;;;;;;3.80;3.60;;;11.30;99.90;;;;;;10446906;28;20315;-83
2021/10/01 04:48:50;;;;;;;4.97;4.43;;;11.30;99.90;;;;;;10462493;28;20546;-83
2021/10/01 04:53:59;;;;;;;4.83;2.93;;;11.30;99.90;;;;;;10447898;28;20213;-84
2021/10/01 04:59:02;;;;;;;3.83;2.90;;;11.30;99.90;;;;;;10445934;28;20220;-82
2021/10/01 05:04:24;;;;;;;3.17;2.87;;;11.30;99.90;;;;;;10463207;28;20224;-82
2021/10/01 05:09:46;;;;;;;3.43;2.70;;;11.20;99.90;;;;;;10463214;28;20571;-83
2021/10/01 05:15:08;;;;;;;3.30;3.10;;;11.20;99.90;;;;;;10465224;28;20221;-83
2021/10/01 05:20:28;;;;;;;2.90;2.70;;;11.20;99.90;;;;;;10465859;28;20228;-83
2021/10/01 05:25:43;;;;;;;2.73;2.60;;;11.20;99.90;;;;;;10450003;28;20241;-82
2021/10/01 05:30:45;;;;;;;2.73;2.63;;;11.20;99.90;;;;;;10467183;28;20189;-83
2021/10/01 05:35:48;;;;;;;3.33;3.03;;;11.20;99.90;;;;;;10470994;28;20209;-82
2021/10/01 05:40:51;;;;;;;3.20;2.90;;;11.20;99.90;;;;;;10463518;28;20292;-83
2021/10/01 05:45:54;;;;;;;3.90;3.07;;;11.30;99.90;;;;;;10462329;28;20348;-83
2021/10/01 05:51:05;;;;;;;3.00;2.80;;;11.30;99.90;;;;;;10462328;28;20291;-82
2021/10/01 05:56:38;;;;;;;3.67;2.70;;;11.30;99.90;;;;;;10415703;28;20209;-82
2021/10/01 06:01:51;;;;;;;4.30;3.97;;;11.30;99.90;;;;;;10441285;28;20705;-83
2021/10/01 06:06:53;;;;;;;2.53;2.33;;;11.30;99.90;;;;;;10458367;28;20715;-82
2021/10/01 06:11:56;;;;;;;4.17;3.00;;;11.30;99.90;;;;;;10455302;28;20391;-82
2021/10/01 06:16:59;;;;;;;2.80;2.60;;;11.40;99.90;;;;;;10455859;28;20277;-84
2021/10/01 06:22:01;;;;;;;3.17;2.97;;;11.40;99.90;;;;;;10450354;28;20209;-83
2021/10/01 06:27:05;;;;;;;3.33;3.03;;;11.40;99.90;;;;;;10456874;28;20196;-82
2021/10/01 06:32:08;;;;;;;3.57;3.37;;;11.50;99.90;;;;;;10457172;28;20232;-82
2021/10/01 06:37:11;;;;;;;3.53;3.33;;;11.50;99.90;;;;;;10453976;28;20681;-82
2021/10/01 06:42:16;;;;;;;3.20;3.00;;;11.50;99.90;;;;;;10441282;28;20224;-82
2021/10/01 06:47:22;;;;;;;3.97;3.67;;;11.60;99.90;;;;;;10457956;28;20185;-82
2021/10/01 06:53:09;;;;;;;5.93;4.27;;;11.60;99.90;;;;;;10461841;28;20240;-83
2021/10/01 07:35:57;;;;;;;5.10;4.30;;;12.10;99.90;;;;;;10464920;28;20625;-84
2021/10/01 08:19:07;;;;;;;9.20;4.03;;;13.10;99.90;;;;;;10447466;28;20224;-82
2021/10/01 08:24:14;;;;;;;4.50;4.10;;;13.20;99.90;;;;;;10460439;28;20611;-83
2021/10/01 08:29:17;;;;;;;4.30;3.97;;;13.30;99.90;;;;;;10462150;28;20192;-83
2021/10/01 08:34:20;;;;;;;5.40;4.10;;;13.40;99.90;;;;;;10463464;28;20240;-83
2021/10/01 08:39:23;;;;;;;4.33;3.93;;;13.50;99.90;;;;;;10463178;28;20311;-83
2021/10/01 08:44:29;;;;;;;3.90;3.57;;;13.70;99.90;;;;;;10445296;28;20727;-83
2021/10/01 08:49:34;;;;;;;6.50;4.47;;;13.80;99.90;;;;;;10462651;28;20200;-84
2021/10/01 08:54:41;;;;;;;6.47;3.90;;;13.90;99.90;;;;;;10445684;28;20225;-83
2021/10/01 08:59:43;;;;;;;5.70;5.30;;;14.00;99.90;;;;;;10462803;28;20673;-83
2021/10/01 09:04:47;;;;;;;4.53;3.60;;;14.20;99.90;;;;;;10462131;28;20268;-83
2021/10/01 09:09:49;;;;;;;4.77;3.47;;;14.30;99.90;;;;;;10447145;28;20252;-83
2021/10/01 09:14:56;;;;;;;5.23;3.50;;;14.40;99.90;;;;;;10464346;28;20209;-84
2021/10/01 09:20:00;;;;;;;3.50;3.30;;;14.50;99.90;;;;;;10451271;28;20227;-83
2021/10/01 09:25:16;;;;;;;5.70;3.23;;;14.70;99.90;;;;;;10462531;28;20499;-83
2021/10/01 09:30:22;;;;;;;5.53;3.30;;;14.80;99.90;;;;;;10446208;28;20200;-83
2021/10/01 09:35:26;;;;;;;4.27;3.17;;;15.00;99.90;;;;;;10445750;28;20704;-84
2021/10/01 09:40:28;;;;;;;6.27;2.80;;;15.20;99.90;;;;;;10446962;28;20251;-84
2021/10/01 09:45:30;;;;;;;4.93;2.70;;;15.50;99.90;;;;;;10469063;28;20235;-84
2021/10/01 09:50:35;;;;;;;2.87;2.67;;;15.70;99.90;;;;;;10463509;28;20193;-84
2021/10/01 09:55:41;;;;;;;2.80;2.60;;;15.90;99.90;;;;;;10456476;28;20225;-85
2021/10/01 10:00:46;;;;;;;2.33;2.13;;;16.00;99.90;;;;;;10454931;28;20241;-83
2021/10/01 10:06:00;;;;;;;2.60;2.40;;;16.20;99.90;;;;;;10454471;28;20727;-84
2021/10/01 10:11:04;;;;;;;3.93;2.70;;;16.20;99.90;;;;;;10455721;28;20189;-83
2021/10/01 10:16:08;;;;;;;3.27;3.00;;;16.10;99.90;;;;;;10438835;28;20263;-84
2021/10/01 10:21:12;;;;;;;2.40;2.30;;;16.10;99.90;;;;;;10440867;28;20217;-83
2021/10/01 10:26:14;;;;;;;2.50;2.30;;;16.10;99.90;;;;;;10439980;28;20245;-83
2021/10/01 10:31:19;;;;;;;2.60;2.50;;;16.10;99.90;;;;;;10457149;28;20199;-84
2021/10/01 10:36:35;;;;;;;2.50;2.40;;;16.10;99.90;;;;;;10440136;28;20221;-84
2021/10/01 10:41:38;;;;;;;2.70;2.47;;;16.10;99.90;;;;;;10459907;28;20189;-85
2021/10/01 10:46:43;;;;;;;2.87;2.67;;;16.10;99.90;;;;;;10461620;28;20197;-84
2021/10/01 10:52:18;;;;;;;2.10;2.00;;;16.10;99.90;;;;;;10462460;28;20252;-83
2021/10/01 10:57:30;;;;;;;3.03;2.23;;;16.10;99.80;;;;;;10349217;28;20220;-83
2021/10/01 11:02:41;;;;;;;2.37;2.27;;;16.20;99.90;;;;;;10456247;28;20220;-83
2021/10/01 11:07:50;;;;;;;2.13;1.87;;;16.20;99.90;;;;;;10441194;28;20195;-83
2021/10/01 11:12:52;;;;;;;2.83;2.63;;;16.20;99.90;;;;;;10456257;28;20221;-83
2021/10/01 11:18:15;;;;;;;2.80;2.70;;;16.20;99.90;;;;;;10439536;28;20707;-83
2021/10/01 11:23:20;;;;;;;2.10;1.90;;;16.20;99.90;;;;;;10459476;28;20225;-84
2021/10/01 11:28:32;;;;;;;2.20;2.10;;;16.20;99.70;;;;;;10456983;28;20196;-83
2021/10/01 11:33:34;;;;;;;2.40;2.10;;;16.30;99.90;;;;;;10416376;28;20225;-84
2021/10/01 11:38:38;;;;;;;1.90;1.80;;;16.30;99.90;;;;;;10399731;28;20309;-85
2021/10/01 11:43:51;;;;;;;2.33;2.23;;;16.30;99.90;;;;;;10403850;28;20308;-84
2021/10/01 11:48:54;;;;;;;2.70;2.50;;;16.30;99.90;;;;;;10404749;28;20643;-83
2021/10/01 11:54:09;;;;;;;2.10;2.00;;;16.30;99.90;;;;;;10417109;28;20220;-83
2021/10/01 11:59:11;;;;;;;3.93;2.40;;;16.40;99.90;;;;;;10412166;28;20597;-84
2021/10/01 12:04:13;;;;;;;1.93;1.60;;;16.50;99.90;;;;;;10423993;28;20286;-84
2021/10/01 12:09:19;;;;;;;2.40;2.30;;;16.60;97.10;;;;;;10437943;28;20280;-83
2021/10/01 12:14:23;;;;;;;2.30;2.10;;;16.70;99.90;;;;;;10453611;28;20285;-84
2021/10/01 12:19:27;;;;;;;2.40;2.20;;;16.70;99.90;;;;;;10457019;28;20300;-84
2021/10/01 12:24:41;;;;;;;2.50;2.33;;;16.70;99.50;;;;;;10457127;28;20266;-83
2021/10/01 12:29:46;;;;;;;2.30;2.20;;;16.80;99.90;;;;;;10438094;28;20288;-83
2021/10/01 12:34:51;;;;;;;2.23;2.07;;;16.80;99.70;;;;;;10408005;28;20261;-83
2021/10/01 12:39:59;;;;;;;2.47;2.37;;;16.90;99.10;;;;;;10410547;28;20229;-83
2021/10/01 12:45:05;;;;;;;2.80;2.60;;;16.90;99.90;;;;;;10411012;28;20237;-84
2021/10/01 12:50:10;;;;;;;2.27;2.07;;;16.90;99.90;;;;;;10397032;28;20228;-84
2021/10/01 12:55:16;;;;;;;2.20;2.10;;;16.90;99.90;;;;;;10421481;28;20234;-84
2021/10/01 13:00:20;;;;;;;2.90;2.70;;;16.90;99.90;;;;;;10419126;28;20328;-84
2021/10/01 13:05:23;;;;;;;2.60;2.40;;;16.90;99.90;;;;;;10442736;28;20234;-82
2021/10/01 13:10:34;;;;;;;5.30;2.87;;;17.00;99.90;;;;;;10443885;28;20201;-83
2021/10/01 13:15:41;;;;;;;2.60;2.40;;;17.00;99.90;;;;;;10460229;28;20212;-83
2021/10/01 13:20:46;;;;;;;3.07;2.53;;;17.00;99.90;;;;;;10460309;28;20731;-83
2021/10/01 13:25:51;;;;;;;2.70;2.50;;;17.00;99.20;;;;;;10459662;28;20308;-83
2021/10/01 13:30:54;;;;;;;2.70;2.50;;;17.10;99.90;;;;;;10459954;28;20625;-84
2021/10/01 13:35:58;;;;;;;2.33;2.23;;;17.10;99.90;;;;;;10461034;28;20774;-85
2021/10/01 13:41:03;;;;;;;2.80;2.70;;;17.20;98.50;;;;;;10445315;28;20270;-84
2021/10/01 13:46:07;;;;;;;3.17;2.97;;;17.30;98.20;;;;;;10443704;28;20232;-84
2021/10/01 13:51:09;;;;;;;4.23;3.10;;;17.40;98.60;;;;;;10443225;28;20276;-84
2021/10/01 13:56:13;;;;;;;2.70;2.60;;;17.50;99.50;;;;;;10447244;28;20228;-85
2021/10/01 14:01:16;;;;;;;4.17;3.50;;;17.50;98.30;;;;;;10436180;28;20575;-85
2021/10/01 14:06:18;;;;;;;3.13;2.93;;;17.60;99.90;;;;;;10417227;28;20220;-84
2021/10/01 14:11:21;;;;;;;3.97;3.67;;;17.70;98.50;;;;;;10420987;28;20220;-84
2021/10/01 14:16:24;;;;;;;3.30;3.10;;;17.80;99.90;;;;;;10399121;28;20733;-84
2021/10/01 14:21:26;;;;;;;4.73;3.57;;;17.80;99.30;;;;;;10399609;28;20677;-84
2021/10/01 14:26:30;;;;;;;3.33;3.03;;;17.80;99.90;;;;;;10414213;28;20300;-84
2021/10/01 14:31:32;;;;;;;4.20;3.80;;;17.70;99.90;;;;;;10404531;28;20227;-83
2021/10/01 14:36:34;;;;;;;3.73;3.43;;;17.70;99.80;;;;;;10455616;28;20231;-83
2021/10/01 14:41:38;;;;;;;3.83;3.53;;;17.80;99.90;;;;;;10455251;28;20213;-83
2021/10/01 14:46:40;;;;;;;3.93;3.53;;;17.90;99.90;;;;;;10454863;28;20205;-84
2021/10/01 14:51:42;;;;;;;4.00;3.70;;;17.90;99.90;;;;;;10440012;28;20190;-84
2021/10/01 14:56:46;;;;;;;5.77;4.70;;;18.00;99.90;;;;;;10458731;28;20195;-83
2021/10/01 15:01:48;;;;;;;4.60;4.30;;;18.10;99.70;;;;;;10428784;28;20233;-83
2021/10/01 15:06:50;;;;;;;6.73;3.90;;;18.30;98.90;;;;;;10414324;28;20208;-84
2021/10/01 15:11:54;;;;;;;4.30;4.00;;;18.40;99.90;;;;;;10413864;28;20729;-83
2021/10/01 15:16:56;;;;;;;4.30;3.90;;;18.40;99.10;;;;;;10395802;28;20206;-84
2021/10/01 15:21:58;;;;;;;5.03;4.63;;;18.40;98.80;;;;;;10397352;28;20232;-84
2021/10/01 15:27:02;;;;;;;5.77;4.20;;;18.50;99.50;;;;;;10397863;28;20206;-84
2021/10/01 15:32:04;;;;;;;4.73;4.20;;;18.50;99.50;;;;;;10408437;28;20308;-84
2021/10/01 15:37:08;;;;;;;6.60;4.20;;;18.40;99.30;;;;;;10438541;28;20201;-84
2021/10/01 15:42:11;;;;;;;4.50;4.10;;;18.40;99.90;;;;;;10457328;28;20308;-84
2021/10/01 15:47:14;;;;;;;3.80;3.50;;;18.30;99.90;;;;;;10456299;28;20193;-84
2021/10/01 15:52:16;;;;;;;4.53;4.20;;;18.30;99.90;;;;;;10460898;28;20209;-84
2021/10/01 15:57:23;;;;;;;4.30;4.00;;;18.30;99.90;;;;;;10440328;28;20217;-84
2021/10/01 16:02:25;;;;;;;4.50;4.20;;;18.40;99.10;;;;;;10443183;28;20673;-84
2021/10/01 16:07:27;;;;;;;5.47;5.07;;;18.40;99.90;;;;;;10445730;28;20197;-83
2021/10/01 16:12:31;;;;;;;4.87;4.47;;;18.30;99.90;;;;;;10430429;28;20231;-84
2021/10/01 16:17:35;;;;;;;4.53;4.13;;;18.30;99.90;;;;;;10436086;28;20275;-83
2021/10/01 16:22:37;;;;;;;5.90;4.57;;;18.30;99.90;;;;;;10436092;28;20256;-83
2021/10/01 16:27:40;;;;;;;5.43;5.00;;;18.20;99.90;;;;;;10458857;28;20197;-84
2021/10/01 16:32:43;;;;;;;5.07;4.67;;;18.10;99.90;;;;;;10463327;28;20288;-83
2021/10/01 16:37:45;;;;;;;5.70;5.20;;;18.10;99.90;;;;;;10405824;28;20224;-83
2021/10/01 16:42:48;;;;;;;6.10;5.60;;;18.00;99.90;;;;;;10418306;28;20217;-83
2021/10/01 16:47:51;;;;;;;4.67;4.37;;;18.00;99.90;;;;;;10420786;28;20218;-84
2021/10/01 16:52:53;;;;;;;5.83;5.43;;;17.90;99.90;;;;;;10420206;28;20228;-83
2021/10/01 16:57:59;;;;;;;4.43;4.13;;;17.80;99.90;;;;;;10401580;28;20198;-83
2021/10/01 17:03:01;;;;;;;7.93;6.30;;;17.60;99.90;;;;;;10404232;28;20646;-84
2021/10/01 17:08:06;;;;;;;6.70;6.10;;;17.50;99.90;;;;;;10419144;28;20700;-83
2021/10/01 17:13:10;;;;;;;5.30;4.90;;;17.40;99.90;;;;;;10419414;28;20228;-84
2021/10/01 17:18:12;;;;;;;5.80;5.30;;;17.30;99.90;;;;;;10403306;28;20256;-84
2021/10/01 17:23:14;;;;;;;7.93;5.10;;;17.10;99.90;;;;;;10401511;28;20285;-84
2021/10/01 17:28:18;;;;;;;11.33;6.03;;;17.10;99.90;;;;;;10418892;28;20225;-83
2021/10/01 17:33:20;;;;;;;7.90;7.20;;;16.90;99.90;;;;;;10425321;28;20660;-84
2021/10/01 17:38:23;;;;;;;12.30;11.03;;;16.90;99.90;;;;;;10443648;28;20689;-83
2021/10/01 17:43:26;;;;;;;6.03;4.33;;;16.80;99.90;;;;;;10442071;28;20337;-83
2021/10/01 17:48:28;;;;;;;8.07;6.17;;;16.70;99.90;;;;;;10457398;28;20185;-84
2021/10/01 17:53:30;;;;;;;7.50;6.33;;;16.70;99.90;;;;;;10458279;28;20296;-85
2021/10/01 17:58:34;;;;;;;5.50;5.00;;;16.60;99.90;;;;;;10460492;28;20221;-84
2021/10/01 18:03:36;;;;;;;4.20;3.30;;;16.60;99.90;;;;;;10459129;28;20227;-83
2021/10/01 18:08:38;;;;;;;3.10;2.80;;;16.50;99.90;;;;;;10442411;28;20262;-83
2021/10/01 18:13:42;;;;;;;3.83;3.53;;;16.30;99.90;;;;;;10439004;28;20223;-85
2021/10/01 18:18:44;;;;;;;4.20;3.53;;;16.30;99.90;;;;;;10439088;28;20213;-83
2021/10/01 18:23:46;;;;;;;7.87;3.93;;;16.30;99.90;;;;;;10455110;28;20321;-84
2021/10/01 18:28:50;;;;;;;4.37;3.83;;;16.20;99.90;;;;;;10438645;28;20254;-83
2021/10/01 18:33:52;;;;;;;4.07;3.20;;;16.20;99.90;;;;;;10456219;28;20300;-84
2021/10/01 18:38:54;;;;;;;4.63;3.67;;;16.20;99.90;;;;;;10455329;28;20308;-84
2021/10/01 18:44:02;;;;;;;5.87;5.37;;;16.10;99.90;;;;;;10455982;28;20229;-83
2021/10/01 18:49:04;;;;;;;6.70;6.10;;;16.10;99.90;;;;;;10455871;28;20212;-84
2021/10/01 18:54:06;;;;;;;5.60;5.10;;;16.00;99.90;;;;;;10457692;28;20636;-84
2021/10/01 18:59:10;;;;;;;7.13;6.53;;;16.00;99.90;;;;;;10455343;28;20615;-84
2021/10/01 19:04:12;;;;;;;7.80;7.00;;;16.00;99.90;;;;;;10439647;28;20308;-84
2021/10/01 19:09:15;;;;;;;9.23;8.40;;;15.90;99.90;;;;;;10440550;28;20571;-83
2021/10/01 19:14:20;;;;;;;8.30;7.60;;;15.90;99.90;;;;;;10459670;28;20213;-84
2021/10/01 19:19:22;;;;;;;13.20;11.90;;;15.90;99.90;;;;;;10437945;28;20290;-84
2021/10/01 19:24:27;;;;;;;6.30;5.70;;;16.00;99.90;;;;;;10455113;28;20704;-83
2021/10/01 19:34:50;;;;;;;7.70;7.00;;;16.00;99.90;;;;;;10456596;28;20590;-84
2021/10/01 19:39:58;;;;;;;8.50;7.60;;;16.00;99.90;;;;;;10457846;28;20288;-85
2021/10/01 19:45:02;;;;;;;8.07;7.30;;;16.00;99.90;;;;;;10485311;23;20259;-83
2021/10/01 19:50:06;;;;;;;8.37;7.53;;;16.00;99.90;;;;;;10468751;28;20194;-82
2021/10/01 19:55:10;;;;;;;7.10;6.53;;;16.00;99.90;;;;;;10466452;28;20221;-82
2021/10/01 20:00:18;;;;;;;7.27;6.67;;;16.00;99.90;;;;;;10452268;28;20256;-82
2021/10/01 20:05:21;;;;;;;8.17;7.57;;;16.00;99.90;;;;;;10474963;28;20279;-82
2021/10/01 20:10:25;;;;;;;8.10;7.40;;;16.00;99.90;;;;;;10475013;28;20192;-82
2021/10/01 20:15:29;;;;;;;7.83;7.07;;;16.00;99.90;;;;;;10475414;28;20205;-82
2021/10/01 20:20:45;;;;;;;7.63;6.80;;;16.00;99.90;;;;;;10479931;28;20941;-82
2021/10/01 20:25:56;;;;;;;8.07;7.37;;;16.00;99.90;;;;;;10478381;28;20221;-82
2021/10/01 20:47:03;;;;;;;8.20;7.30;;;15.90;99.90;;;;;;10414387;28;20199;-82
2021/10/01 20:52:07;;;;;;;6.67;6.17;;;16.00;99.90;;;;;;10415635;28;20229;-82
2021/10/01 20:57:15;;;;;;;7.33;6.73;;;16.00;99.90;;;;;;10414567;28;20244;-83
2021/10/01 21:02:38;;;;;;;6.80;6.30;;;16.00;99.90;;;;;;10431865;28;20248;-82
2021/10/01 21:39:58;;;;;;;7.67;6.97;;;16.10;99.90;;;;;;10424417;28;20210;-84
2021/10/01 21:45:08;;;;;;;8.50;6.83;;;16.10;99.90;;;;;;10406768;28;20217;-82
2021/10/01 21:50:19;;;;;;;8.07;7.47;;;16.10;99.90;;;;;;10415062;28;20194;-83
2021/10/01 21:55:21;;;;;;;6.67;6.17;;;16.10;99.90;;;;;;10399727;28;20488;-83
2021/10/01 22:00:40;;;;;;;7.37;6.70;;;16.10;99.90;;;;;;10405218;28;20831;-82
2021/10/01 22:22:08;;;;;;;6.57;5.93;;;16.00;99.90;;;;;;10520814;28;20651;-83
2021/10/01 22:27:10;;;;;;;6.03;5.53;;;16.00;99.90;;;;;;10523060;28;20679;-82
2021/10/01 22:32:16;;;;;;;6.10;5.60;;;16.00;99.90;;;;;;10517557;28;20710;-83
2021/10/01 22:37:20;;;;;;;7.00;6.30;;;16.00;99.90;;;;;;10499671;28;20673;-83
2021/10/01 22:42:27;;;;;;;6.33;5.70;;;16.00;99.90;;;;;;10493412;28;20241;-83
2021/10/01 22:47:33;;;;;;;7.30;6.70;;;16.00;99.90;;;;;;10494998;28;20537;-83
2021/10/01 22:52:37;;;;;;;6.90;6.30;;;16.00;99.90;;;;;;10487817;28;20231;-82
2021/10/01 22:57:41;;;;;;;7.73;7.10;;;16.10;99.90;;;;;;10491667;28;20196;-82
2021/10/01 23:02:45;;;;;;;7.03;6.37;;;16.10;99.90;;;;;;10475708;28;20323;-82
2021/10/01 23:07:47;;;;;;;6.43;5.80;;;16.10;99.90;;;;;;10492267;28;20192;-82
2021/10/01 23:12:55;;;;;;;7.00;6.40;;;16.10;99.90;;;;;;10491303;28;20299;-83
2021/10/01 23:18:16;;;;;;;8.57;7.20;;;16.10;99.90;;;;;;10474990;28;20630;-82
